sensor_id;sensor_type;location;lat;lon;timestamp;pressure;altitude;pressure_sealevel;temperature;humidity
62333;BME280;48624;49.812;8.562;2023-03-04T00:01:37;101386.97;;;-1.45;90.55
62333;BME280;48624;49.812;8.562;2023-03-04T00:04:02;101381.78;;;-1.62;91.72
62333;BME280;48624;49.812;8.562;2023-03-04T00:06:28;101394.78;;;-1.76;92.13
62333;BME280;48624;49.812;8.562;2023-03-04T00:08:54;101388.75;;;-1.83;93.14
62333;BME280;48624;49.812;8.562;2023-03-04T00:11:19;101394.81;;;-1.68;93.46
62333;BME280;48624;49.812;8.562;2023-03-04T00:13:44;101385.28;;;-1.86;93.60
62333;BME280;48624;49.812;8.562;2023-03-04T00:16:10;101397.41;;;-1.93;94.73
62333;BME280;48624;49.812;8.562;2023-03-04T00:18:35;101400.00;;;-1.84;94.75
62333;BME280;48624;49.812;8.562;2023-03-04T00:21:00;101399.16;;;-1.84;94.49
62333;BME280;48624;49.812;8.562;2023-03-04T00:23:26;101396.53;;;-1.70;93.72
62333;BME280;48624;49.812;8.562;2023-03-04T00:25:51;101395.66;;;-1.60;93.20
62333;BME280;48624;49.812;8.562;2023-03-04T00:28:16;101395.63;;;-1.58;93.03
62333;BME280;48624;49.812;8.562;2023-03-04T00:30:43;101399.06;;;-1.45;91.25
62333;BME280;48624;49.812;8.562;2023-03-04T00:33:08;101393.00;;;-1.49;92.47
62333;BME280;48624;49.812;8.562;2023-03-04T00:35:33;101401.72;;;-1.51;93.61
62333;BME280;48624;49.812;8.562;2023-03-04T00:38:00;101402.56;;;-1.51;93.72
62333;BME280;48624;49.812;8.562;2023-03-04T00:40:25;101393.91;;;-1.48;93.91
62333;BME280;48624;49.812;8.562;2023-03-04T00:42:51;101398.19;;;-1.40;93.53
62333;BME280;48624;49.812;8.562;2023-03-04T00:45:16;101399.94;;;-1.40;92.96
62333;BME280;48624;49.812;8.562;2023-03-04T00:47:41;101403.41;;;-1.38;93.15
62333;BME280;48624;49.812;8.562;2023-03-04T00:50:07;101400.78;;;-1.32;90.67
62333;BME280;48624;49.812;8.562;2023-03-04T00:52:33;101403.41;;;-1.38;91.64
62333;BME280;48624;49.812;8.562;2023-03-04T00:54:58;101400.81;;;-1.43;92.24
62333;BME280;48624;49.812;8.562;2023-03-04T00:57:23;101399.06;;;-1.45;92.74
62333;BME280;48624;49.812;8.562;2023-03-04T00:59:49;101403.41;;;-1.47;92.91
62333;BME280;48624;49.812;8.562;2023-03-04T01:02:14;101399.94;;;-1.48;91.88
62333;BME280;48624;49.812;8.562;2023-03-04T01:04:40;101401.69;;;-1.50;91.96
62333;BME280;48624;49.812;8.562;2023-03-04T01:07:06;101395.59;;;-1.43;90.98
62333;BME280;48624;49.812;8.562;2023-03-04T01:09:32;101399.97;;;-1.51;91.02
62333;BME280;48624;49.812;8.562;2023-03-04T01:11:57;101399.13;;;-1.61;92.03
62333;BME280;48624;49.812;8.562;2023-03-04T01:14:23;101391.31;;;-1.56;91.77
62333;BME280;48624;49.812;8.562;2023-03-04T01:16:48;101392.19;;;-1.59;91.93
62333;BME280;48624;49.812;8.562;2023-03-04T01:19:13;101392.16;;;-1.62;91.75
62333;BME280;48624;49.812;8.562;2023-03-04T01:21:39;101393.06;;;-1.72;92.67
62333;BME280;48624;49.812;8.562;2023-03-04T01:24:04;101381.78;;;-1.49;89.82
62333;BME280;48624;49.812;8.562;2023-03-04T01:26:30;101376.63;;;-1.81;92.96
62333;BME280;48624;49.812;8.562;2023-03-04T01:28:55;101376.63;;;-1.84;93.47
62333;BME280;48624;49.812;8.562;2023-03-04T01:31:20;101375.81;;;-2.07;95.30
62333;BME280;48624;49.812;8.562;2023-03-04T01:33:46;101369.72;;;-1.88;94.92
62333;BME280;48624;49.812;8.562;2023-03-04T01:36:11;101375.75;;;-1.87;94.65
62333;BME280;48624;49.812;8.562;2023-03-04T01:38:36;101383.53;;;-1.69;94.33
62333;BME280;48624;49.812;8.562;2023-03-04T01:41:02;101374.00;;;-1.65;94.18
62333;BME280;48624;49.812;8.562;2023-03-04T01:43:28;101367.94;;;-1.67;95.08
62333;BME280;48624;49.812;8.562;2023-03-04T01:45:55;101377.44;;;-1.58;94.55
62333;BME280;48624;49.812;8.562;2023-03-04T01:48:28;101369.59;;;-1.44;93.91
62333;BME280;48624;49.812;8.562;2023-03-04T01:50:54;101367.84;;;-1.36;93.78
62333;BME280;48624;49.812;8.562;2023-03-04T01:53:22;101373.06;;;-1.34;92.66
62333;BME280;48624;49.812;8.562;2023-03-04T01:55:49;101364.38;;;-1.32;92.24
62333;BME280;48624;49.812;8.562;2023-03-04T01:58:16;101356.56;;;-1.24;91.28
62333;BME280;48624;49.812;8.562;2023-03-04T02:00:41;101366.03;;;-1.15;90.42
62333;BME280;48624;49.812;8.562;2023-03-04T02:03:14;101358.25;;;-1.18;90.80
62333;BME280;48624;49.812;8.562;2023-03-04T02:05:43;101356.50;;;-1.13;90.75
62333;BME280;48624;49.812;8.562;2023-03-04T02:08:11;101354.72;;;-1.09;91.82
62333;BME280;48624;49.812;8.562;2023-03-04T02:10:37;101353.00;;;-1.10;92.25
62333;BME280;48624;49.812;8.562;2023-03-04T02:13:03;101346.06;;;-1.04;92.32
62333;BME280;48624;49.812;8.562;2023-03-04T02:15:29;101336.56;;;-1.11;92.77
62333;BME280;48624;49.812;8.562;2023-03-04T02:17:54;101340.88;;;-1.04;92.11
62333;BME280;48624;49.812;8.562;2023-03-04T02:20:34;101347.75;;;-0.95;90.45
62333;BME280;48624;49.812;8.562;2023-03-04T02:25:48;101338.28;;;-1.10;90.92
62333;BME280;48624;49.812;8.562;2023-03-04T02:28:14;101334.81;;;-1.10;91.82
62333;BME280;48624;49.812;8.562;2023-03-04T02:30:40;101335.72;;;-1.13;90.84
62333;BME280;48624;49.812;8.562;2023-03-04T02:33:05;101334.00;;;-1.20;91.54
62333;BME280;48624;49.812;8.562;2023-03-04T02:35:31;101330.50;;;-1.16;90.09
62333;BME280;48624;49.812;8.562;2023-03-04T02:37:56;101330.59;;;-1.35;91.74
62333;BME280;48624;49.812;8.562;2023-03-04T02:40:26;101334.03;;;-1.30;91.28
62333;BME280;48624;49.812;8.562;2023-03-04T02:42:52;101331.41;;;-1.25;90.20
62333;BME280;48624;49.812;8.562;2023-03-04T02:45:43;101332.34;;;-1.40;89.94
62333;BME280;48624;49.812;8.562;2023-03-04T02:48:09;101328.03;;;-1.41;91.13
62333;BME280;48624;49.812;8.562;2023-03-04T02:50:38;101324.56;;;-1.48;89.71
62333;BME280;48624;49.812;8.562;2023-03-04T02:53:05;101321.16;;;-1.59;92.03
62333;BME280;48624;49.812;8.562;2023-03-04T02:55:30;101321.09;;;-1.42;92.00
62333;BME280;48624;49.812;8.562;2023-03-04T02:57:56;101327.97;;;-1.35;90.72
62333;BME280;48624;49.812;8.562;2023-03-04T03:00:22;101324.50;;;-1.34;91.32
62333;BME280;48624;49.812;8.562;2023-03-04T03:02:47;101331.41;;;-1.23;90.88
62333;BME280;48624;49.812;8.562;2023-03-04T03:05:13;101323.53;;;-1.09;89.68
62333;BME280;48624;49.812;8.562;2023-03-04T03:07:38;101325.22;;;-1.02;88.13
62333;BME280;48624;49.812;8.562;2023-03-04T03:10:04;101329.53;;;-0.96;87.61
62333;BME280;48624;49.812;8.562;2023-03-04T03:12:29;101325.31;;;-1.16;88.80
62333;BME280;48624;49.812;8.562;2023-03-04T03:14:54;101319.28;;;-1.24;90.09
62333;BME280;48624;49.812;8.562;2023-03-04T03:17:20;101327.97;;;-1.29;90.09
62333;BME280;48624;49.812;8.562;2023-03-04T03:19:45;101322.81;;;-1.38;90.91
62333;BME280;48624;49.812;8.562;2023-03-04T03:22:10;101321.06;;;-1.41;90.93
62333;BME280;48624;49.812;8.562;2023-03-04T03:24:36;101318.47;;;-1.41;90.96
62333;BME280;48624;49.812;8.562;2023-03-04T03:27:01;101315.91;;;-1.48;90.94
62333;BME280;48624;49.812;8.562;2023-03-04T03:29:26;101317.59;;;-1.40;89.76
62333;BME280;48624;49.812;8.562;2023-03-04T03:31:51;101314.22;;;-1.59;90.38
62333;BME280;48624;49.812;8.562;2023-03-04T03:34:17;101315.13;;;-1.64;91.26
62333;BME280;48624;49.812;8.562;2023-03-04T03:36:42;101317.72;;;-1.66;91.76
62333;BME280;48624;49.812;8.562;2023-03-04T03:39:07;101316.00;;;-1.75;93.16
62333;BME280;48624;49.812;8.562;2023-03-04T03:41:33;101313.38;;;-1.62;91.89
62333;BME280;48624;49.812;8.562;2023-03-04T03:43:58;101309.03;;;-1.60;92.32
62333;BME280;48624;49.812;8.562;2023-03-04T03:46:23;101316.81;;;-1.59;92.71
62333;BME280;48624;49.812;8.562;2023-03-04T03:48:49;101313.31;;;-1.42;91.30
62333;BME280;48624;49.812;8.562;2023-03-04T03:51:14;101312.41;;;-1.40;91.62
62333;BME280;48624;49.812;8.562;2023-03-04T03:53:39;101308.91;;;-1.34;91.13
62333;BME280;48624;49.812;8.562;2023-03-04T03:56:05;101314.09;;;-1.26;91.26
62333;BME280;48624;49.812;8.562;2023-03-04T03:58:30;101312.31;;;-1.21;90.79
62333;BME280;48624;49.812;8.562;2023-03-04T04:00:56;101313.16;;;-1.11;90.67
62333;BME280;48624;49.812;8.562;2023-03-04T04:03:21;101311.41;;;-1.10;91.28
62333;BME280;48624;49.812;8.562;2023-03-04T04:05:46;101310.50;;;-1.03;91.17
62333;BME280;48624;49.812;8.562;2023-03-04T04:08:13;101307.03;;;-1.01;91.40
62333;BME280;48624;49.812;8.562;2023-03-04T04:10:39;101304.41;;;-0.98;90.58
62333;BME280;48624;49.812;8.562;2023-03-04T04:13:04;101302.59;;;-0.91;91.08
62333;BME280;48624;49.812;8.562;2023-03-04T04:15:30;101302.53;;;-0.75;90.51
62333;BME280;48624;49.812;8.562;2023-03-04T04:17:55;101298.88;;;-0.52;89.29
62333;BME280;48624;49.812;8.562;2023-03-04T04:20:20;101302.34;;;-0.53;88.92
62333;BME280;48624;49.812;8.562;2023-03-04T04:22:46;101301.50;;;-0.54;88.93
62333;BME280;48624;49.812;8.562;2023-03-04T04:25:11;101306.75;;;-0.59;88.63
62333;BME280;48624;49.812;8.562;2023-03-04T04:27:36;101309.25;;;-0.48;88.18
62333;BME280;48624;49.812;8.562;2023-03-04T04:30:03;101297.06;;;-0.44;87.77
62333;BME280;48624;49.812;8.562;2023-03-04T04:32:28;101304.03;;;-0.48;87.58
62333;BME280;48624;49.812;8.562;2023-03-04T04:34:54;101310.13;;;-0.46;88.29
62333;BME280;48624;49.812;8.562;2023-03-04T04:37:19;101306.63;;;-0.46;88.32
62333;BME280;48624;49.812;8.562;2023-03-04T04:39:45;101304.06;;;-0.51;88.17
62333;BME280;48624;49.812;8.562;2023-03-04T04:42:10;101310.13;;;-0.49;88.31
62333;BME280;48624;49.812;8.562;2023-03-04T04:44:35;101304.06;;;-0.51;88.39
62333;BME280;48624;49.812;8.562;2023-03-04T04:47:03;101311.00;;;-0.47;89.16
62333;BME280;48624;49.812;8.562;2023-03-04T04:49:28;101300.44;;;-0.31;87.78
62333;BME280;48624;49.812;8.562;2023-03-04T04:51:54;101315.19;;;-0.29;87.45
62333;BME280;48624;49.812;8.562;2023-03-04T04:54:19;101308.25;;;-0.31;88.14
62333;BME280;48624;49.812;8.562;2023-03-04T04:56:44;101307.34;;;-0.27;88.32
62333;BME280;48624;49.812;8.562;2023-03-04T04:59:09;101309.97;;;-0.30;88.43
62333;BME280;48624;49.812;8.562;2023-03-04T05:01:35;101305.44;;;-0.08;88.18
62333;BME280;48624;49.812;8.562;2023-03-04T05:04:01;101304.59;;;-0.08;88.20
62333;BME280;48624;49.812;8.562;2023-03-04T05:06:26;101306.19;;;0.04;87.78
62333;BME280;48624;49.812;8.562;2023-03-04T05:08:52;101303.56;;;0.05;87.63
62333;BME280;48624;49.812;8.562;2023-03-04T05:11:19;101301.59;;;0.26;86.69
62333;BME280;48624;49.812;8.562;2023-03-04T05:13:44;101308.50;;;0.32;84.78
62333;BME280;48624;49.812;8.562;2023-03-04T05:16:10;101301.78;;;0.09;86.32
62333;BME280;48624;49.812;8.562;2023-03-04T05:18:35;101295.00;;;-0.05;87.88
62333;BME280;48624;49.812;8.562;2023-03-04T05:21:02;101293.09;;;0.11;87.46
62333;BME280;48624;49.812;8.562;2023-03-04T05:23:33;101292.31;;;0.03;87.12
62333;BME280;48624;49.812;8.562;2023-03-04T05:25:59;101298.31;;;0.10;87.53
62333;BME280;48624;49.812;8.562;2023-03-04T05:28:25;101292.16;;;0.17;86.58
62333;BME280;48624;49.812;8.562;2023-03-04T05:30:50;101284.31;;;0.19;86.31
62333;BME280;48624;49.812;8.562;2023-03-04T05:35:49;101289.44;;;0.26;86.87
62333;BME280;48624;49.812;8.562;2023-03-04T05:38:17;101284.31;;;0.19;87.10
62333;BME280;48624;49.812;8.562;2023-03-04T05:40:43;101276.47;;;0.19;87.14
62333;BME280;48624;49.812;8.562;2023-03-04T05:43:09;101292.09;;;0.22;86.71
62333;BME280;48624;49.812;8.562;2023-03-04T05:45:35;101286.06;;;0.18;87.60
62333;BME280;48624;49.812;8.562;2023-03-04T05:48:02;101294.63;;;0.30;87.03
62333;BME280;48624;49.812;8.562;2023-03-04T05:50:28;101292.06;;;0.25;87.03
62333;BME280;48624;49.812;8.562;2023-03-04T05:52:54;101296.47;;;0.20;87.57
62333;BME280;48624;49.812;8.562;2023-03-04T05:55:19;101297.22;;;0.28;86.71
62333;BME280;48624;49.812;8.562;2023-03-04T05:57:45;101301.53;;;0.32;87.15
62333;BME280;48624;49.812;8.562;2023-03-04T06:00:11;101293.78;;;0.27;86.79
62333;BME280;48624;49.812;8.562;2023-03-04T06:02:37;101291.31;;;0.13;87.63
62333;BME280;48624;49.812;8.562;2023-03-04T06:05:03;101288.69;;;0.17;87.42
62333;BME280;48624;49.812;8.562;2023-03-04T06:07:29;101293.88;;;0.18;87.48
62333;BME280;48624;49.812;8.562;2023-03-04T06:09:54;101295.78;;;0.01;87.20
62333;BME280;48624;49.812;8.562;2023-03-04T06:12:20;101301.97;;;-0.10;88.10
62333;BME280;48624;49.812;8.562;2023-03-04T06:14:45;101301.84;;;0.03;88.41
62333;BME280;48624;49.812;8.562;2023-03-04T06:17:10;101303.78;;;-0.17;88.95
62333;BME280;48624;49.812;8.562;2023-03-04T06:19:37;101315.88;;;-0.12;88.61
62333;BME280;48624;49.812;8.562;2023-03-04T06:22:03;101315.00;;;-0.08;88.59
62333;BME280;48624;49.812;8.562;2023-03-04T06:24:29;101314.97;;;-0.05;89.13
62333;BME280;48624;49.812;8.562;2023-03-04T06:26:54;101328.03;;;-0.10;89.01
62333;BME280;48624;49.812;8.562;2023-03-04T06:29:20;101327.19;;;-0.12;89.54
62333;BME280;48624;49.812;8.562;2023-03-04T06:31:45;101321.06;;;-0.08;90.29
62333;BME280;48624;49.812;8.562;2023-03-04T06:34:12;101331.31;;;0.11;89.28
62333;BME280;48624;49.812;8.562;2023-03-04T06:36:37;101332.19;;;0.11;88.93
62333;BME280;48624;49.812;8.562;2023-03-04T06:39:04;101335.53;;;0.21;88.68
62333;BME280;48624;49.812;8.562;2023-03-04T06:41:31;101339.91;;;0.21;88.77
62333;BME280;48624;49.812;8.562;2023-03-04T06:43:56;101333.28;;;-0.16;90.17
62333;BME280;48624;49.812;8.562;2023-03-04T06:46:22;101340.78;;;0.18;89.17
62333;BME280;48624;49.812;8.562;2023-03-04T06:48:47;101345.13;;;0.18;89.95
62333;BME280;48624;49.812;8.562;2023-03-04T06:51:13;101348.47;;;0.34;89.29
62333;BME280;48624;49.812;8.562;2023-03-04T06:53:39;101348.56;;;0.23;89.49
62333;BME280;48624;49.812;8.562;2023-03-04T06:56:05;101350.19;;;0.35;89.38
62333;BME280;48624;49.812;8.562;2023-03-04T06:58:31;101352.00;;;0.26;89.48
62333;BME280;48624;49.812;8.562;2023-03-04T07:01:16;101351.06;;;0.32;89.34
62333;BME280;48624;49.812;8.562;2023-03-04T07:03:42;101352.66;;;0.47;89.11
62333;BME280;48624;49.812;8.562;2023-03-04T07:06:12;101351.06;;;0.31;89.58
62333;BME280;48624;49.812;8.562;2023-03-04T07:08:38;101349.19;;;0.45;89.13
62333;BME280;48624;49.812;8.562;2023-03-04T07:11:04;101352.78;;;0.33;90.05
62333;BME280;48624;49.812;8.562;2023-03-04T07:13:30;101353.53;;;0.46;89.49
62333;BME280;48624;49.812;8.562;2023-03-04T07:15:55;101354.47;;;0.40;89.33
62333;BME280;48624;49.812;8.562;2023-03-04T07:18:21;101362.34;;;0.36;89.86
62333;BME280;48624;49.812;8.562;2023-03-04T07:20:46;101371.09;;;0.30;90.06
62333;BME280;48624;49.812;8.562;2023-03-04T07:23:11;101368.22;;;0.53;89.25
62333;BME280;48624;49.812;8.562;2023-03-04T07:25:37;101364.59;;;0.68;88.70
62333;BME280;48624;49.812;8.562;2023-03-04T07:28:02;101368.03;;;0.71;89.04
62333;BME280;48624;49.812;8.562;2023-03-04T07:30:27;101375.69;;;0.85;88.29
62333;BME280;48624;49.812;8.562;2023-03-04T07:32:56;101367.41;;;0.50;88.67
62333;BME280;48624;49.812;8.562;2023-03-04T07:35:22;101372.47;;;0.62;89.28
62333;BME280;48624;49.812;8.562;2023-03-04T07:37:47;101366.34;;;0.65;88.82
62333;BME280;48624;49.812;8.562;2023-03-04T07:40:14;101368.22;;;0.53;89.52
62333;BME280;48624;49.812;8.562;2023-03-04T07:42:40;101378.50;;;0.67;89.02
62333;BME280;48624;49.812;8.562;2023-03-04T07:45:05;101368.13;;;0.61;89.31
62333;BME280;48624;49.812;8.562;2023-03-04T07:47:32;101373.25;;;0.71;88.80
62333;BME280;48624;49.812;8.562;2023-03-04T07:49:57;101380.19;;;0.70;88.61
62333;BME280;48624;49.812;8.562;2023-03-04T07:52:22;101381.69;;;0.90;88.38
62333;BME280;48624;49.812;8.562;2023-03-04T07:54:47;101381.75;;;0.85;88.45
62333;BME280;48624;49.812;8.562;2023-03-04T07:57:13;101386.13;;;0.86;88.38
62333;BME280;48624;49.812;8.562;2023-03-04T07:59:38;101379.13;;;0.87;88.65
62333;BME280;48624;49.812;8.562;2023-03-04T08:02:03;101379.84;;;1.00;88.23
62333;BME280;48624;49.812;8.562;2023-03-04T08:04:29;101383.09;;;1.16;87.42
62333;BME280;48624;49.812;8.562;2023-03-04T08:06:54;101379.59;;;1.18;87.12
62333;BME280;48624;49.812;8.562;2023-03-04T08:09:19;101391.94;;;1.05;87.25
62333;BME280;48624;49.812;8.562;2023-03-04T08:11:45;101385.63;;;1.23;86.89
62333;BME280;48624;49.812;8.562;2023-03-04T08:14:11;101376.09;;;1.18;87.33
62333;BME280;48624;49.812;8.562;2023-03-04T08:16:37;101385.50;;;1.33;86.91
62333;BME280;48624;49.812;8.562;2023-03-04T08:19:03;101381.75;;;1.51;86.32
62333;BME280;48624;49.812;8.562;2023-03-04T08:21:29;101387.72;;;1.58;86.25
62333;BME280;48624;49.812;8.562;2023-03-04T08:23:57;101390.19;;;1.69;86.07
62333;BME280;48624;49.812;8.562;2023-03-04T08:26:30;101393.97;;;2.04;83.75
62333;BME280;48624;49.812;8.562;2023-03-04T08:29:01;101385.44;;;1.92;84.35
62333;BME280;48624;49.812;8.562;2023-03-04T08:31:27;101381.00;;;1.99;84.28
62333;BME280;48624;49.812;8.562;2023-03-04T08:33:52;101390.34;;;1.59;84.71
62333;BME280;48624;49.812;8.562;2023-03-04T08:36:18;101389.00;;;1.88;84.15
62333;BME280;48624;49.812;8.562;2023-03-04T08:38:43;101392.00;;;2.17;84.66
62333;BME280;48624;49.812;8.562;2023-03-04T08:41:08;101390.84;;;2.32;83.30
62333;BME280;48624;49.812;8.562;2023-03-04T08:43:34;101396.38;;;2.16;83.33
62333;BME280;48624;49.812;8.562;2023-03-04T08:45:59;101398.00;;;2.24;83.01
62333;BME280;48624;49.812;8.562;2023-03-04T08:48:25;101397.16;;;2.21;84.02
62333;BME280;48624;49.812;8.562;2023-03-04T08:50:51;101392.94;;;2.60;83.07
62333;BME280;48624;49.812;8.562;2023-03-04T08:53:17;101396.72;;;2.46;82.01
62333;BME280;48624;49.812;8.562;2023-03-04T08:55:43;101397.03;;;2.29;84.07
62333;BME280;48624;49.812;8.562;2023-03-04T08:58:09;101397.78;;;2.34;83.56
62333;BME280;48624;49.812;8.562;2023-03-04T09:00:37;101398.72;;;1.80;84.37
62333;BME280;48624;49.812;8.562;2023-03-04T09:03:03;101396.16;;;2.29;83.43
62333;BME280;48624;49.812;8.562;2023-03-04T09:05:29;101399.75;;;2.23;83.44
62333;BME280;48624;49.812;8.562;2023-03-04T09:07:55;101401.84;;;2.51;82.64
62333;BME280;48624;49.812;8.562;2023-03-04T09:10:21;101406.28;;;2.47;82.37
62333;BME280;48624;49.812;8.562;2023-03-04T09:12:47;101400.97;;;2.50;82.20
62333;BME280;48624;49.812;8.562;2023-03-04T09:15:13;101403.47;;;2.58;81.62
62333;BME280;48624;49.812;8.562;2023-03-04T09:17:39;101391.56;;;2.42;81.19
62333;BME280;48624;49.812;8.562;2023-03-04T09:20:06;101397.25;;;2.64;81.28
62333;BME280;48624;49.812;8.562;2023-03-04T09:22:34;101394.47;;;2.72;80.91
62333;BME280;48624;49.812;8.562;2023-03-04T09:24:59;101392.69;;;2.74;81.06
62333;BME280;48624;49.812;8.562;2023-03-04T09:27:24;101393.38;;;2.84;81.54
62333;BME280;48624;49.812;8.562;2023-03-04T09:29:50;101387.84;;;2.99;81.14
62333;BME280;48624;49.812;8.562;2023-03-04T09:32:15;101393.31;;;2.87;81.47
62333;BME280;48624;49.812;8.562;2023-03-04T09:34:40;101394.63;;;3.08;80.96
62333;BME280;48624;49.812;8.562;2023-03-04T09:37:06;101388.69;;;3.39;80.36
62333;BME280;48624;49.812;8.562;2023-03-04T09:39:31;101391.69;;;3.22;79.93
62333;BME280;48624;49.812;8.562;2023-03-04T09:41:58;101401.06;;;3.34;79.68
62333;BME280;48624;49.812;8.562;2023-03-04T09:44:40;101389.78;;;3.30;79.52
62333;BME280;48624;49.812;8.562;2023-03-04T09:47:12;101394.38;;;3.58;78.34
62333;BME280;48624;49.812;8.562;2023-03-04T09:49:41;101389.06;;;3.61;78.28
62333;BME280;48624;49.812;8.562;2023-03-04T09:52:20;101390.16;;;3.53;77.58
62333;BME280;48624;49.812;8.562;2023-03-04T09:57:52;101393.06;;;3.77;77.68
62333;BME280;48624;49.812;8.562;2023-03-04T10:00:22;101384.44;;;4.08;76.49
62333;BME280;48624;49.812;8.562;2023-03-04T10:05:41;101390.94;;;3.56;77.90
62333;BME280;48624;49.812;8.562;2023-03-04T10:08:25;101385.97;;;3.82;77.79
62333;BME280;48624;49.812;8.562;2023-03-04T10:10:57;101387.47;;;3.92;77.44
62333;BME280;48624;49.812;8.562;2023-03-04T10:15:58;101384.84;;;3.92;77.56
62333;BME280;48624;49.812;8.562;2023-03-04T10:18:36;101398.53;;;4.03;77.22
62333;BME280;48624;49.812;8.562;2023-03-04T10:21:26;101382.97;;;4.32;76.42
62333;BME280;48624;49.812;8.562;2023-03-04T10:23:55;101376.75;;;4.35;75.47
62333;BME280;48624;49.812;8.562;2023-03-04T10:26:21;101378.44;;;4.04;76.85
62333;BME280;48624;49.812;8.562;2023-03-04T10:28:47;101381.34;;;4.26;76.47
62333;BME280;48624;49.812;8.562;2023-03-04T10:31:20;101383.72;;;4.02;75.29
62333;BME280;48624;49.812;8.562;2023-03-04T10:33:51;101374.56;;;4.19;75.05
62333;BME280;48624;49.812;8.562;2023-03-04T10:36:31;101371.13;;;4.49;74.23
62333;BME280;48624;49.812;8.562;2023-03-04T10:39:06;101372.66;;;4.57;73.70
62333;BME280;48624;49.812;8.562;2023-03-04T10:41:33;101380.69;;;4.83;73.16
62333;BME280;48624;49.812;8.562;2023-03-04T10:44:03;101380.00;;;4.76;72.76
62333;BME280;48624;49.812;8.562;2023-03-04T10:46:29;101375.81;;;4.69;73.03
62333;BME280;48624;49.812;8.562;2023-03-04T10:48:55;101378.97;;;4.82;72.68
62333;BME280;48624;49.812;8.562;2023-03-04T10:51:26;101373.44;;;4.91;72.25
62333;BME280;48624;49.812;8.562;2023-03-04T10:53:56;101367.56;;;4.83;72.66
62333;BME280;48624;49.812;8.562;2023-03-04T10:56:39;101365.16;;;4.75;72.89
62333;BME280;48624;49.812;8.562;2023-03-04T11:02:25;101360.44;;;5.17;71.29
62333;BME280;48624;49.812;8.562;2023-03-04T11:07:26;101358.88;;;5.09;71.19
62333;BME280;48624;49.812;8.562;2023-03-04T11:09:51;101349.78;;;5.21;70.25
62333;BME280;48624;49.812;8.562;2023-03-04T11:12:20;101349.59;;;5.27;70.27
62333;BME280;48624;49.812;8.562;2023-03-04T11:14:47;101347.13;;;5.23;68.43
62333;BME280;48624;49.812;8.562;2023-03-04T11:17:21;101350.19;;;5.64;68.50
62333;BME280;48624;49.812;8.562;2023-03-04T11:19:51;101345.03;;;5.33;69.20
62333;BME280;48624;49.812;8.562;2023-03-04T11:22:19;101339.66;;;5.64;67.58
62333;BME280;48624;49.812;8.562;2023-03-04T11:24:54;101337.31;;;5.28;68.19
62333;BME280;48624;49.812;8.562;2023-03-04T11:27:24;101331.25;;;5.26;69.65
62333;BME280;48624;49.812;8.562;2023-03-04T11:32:42;101324.00;;;5.61;67.34
62333;BME280;48624;49.812;8.562;2023-03-04T11:37:52;101329.03;;;5.67;68.13
62333;BME280;48624;49.812;8.562;2023-03-04T11:43:03;101316.91;;;5.36;68.25
62333;BME280;48624;49.812;8.562;2023-03-04T11:45:49;101316.66;;;5.44;68.12
62333;BME280;48624;49.812;8.562;2023-03-04T11:51:48;101311.34;;;5.73;67.31
62333;BME280;48624;49.812;8.562;2023-03-04T12:18:41;101285.50;;;5.86;65.56
62333;BME280;48624;49.812;8.562;2023-03-04T12:45:19;101269.28;;;5.73;66.74
62333;BME280;48624;49.812;8.562;2023-03-04T12:53:15;101256.59;;;5.59;66.71
62333;BME280;48624;49.812;8.562;2023-03-04T12:55:45;101255.34;;;5.71;66.89
62333;BME280;48624;49.812;8.562;2023-03-04T12:58:24;101249.75;;;5.80;66.72
62333;BME280;48624;49.812;8.562;2023-03-04T13:04:00;101250.91;;;5.96;66.47
62333;BME280;48624;49.812;8.562;2023-03-04T13:06:41;101252.38;;;5.80;66.50
62333;BME280;48624;49.812;8.562;2023-03-04T13:09:17;101245.31;;;6.07;66.03
62333;BME280;48624;49.812;8.562;2023-03-04T13:17:52;101240.41;;;5.71;66.54
62333;BME280;48624;49.812;8.562;2023-03-04T13:22:55;101230.09;;;5.90;66.38
62333;BME280;48624;49.812;8.562;2023-03-04T13:26:06;101226.47;;;5.69;66.34
62333;BME280;48624;49.812;8.562;2023-03-04T13:28:35;101217.63;;;5.95;66.72
62333;BME280;48624;49.812;8.562;2023-03-04T13:36:06;101221.25;;;6.18;65.83
62333;BME280;48624;49.812;8.562;2023-03-04T13:39:21;101210.16;;;5.85;66.20
62333;BME280;48624;49.812;8.562;2023-03-04T13:41:48;101215.84;;;5.97;66.24
62333;BME280;48624;49.812;8.562;2023-03-04T13:44:35;101204.66;;;5.91;66.33
62333;BME280;48624;49.812;8.562;2023-03-04T13:47:31;101205.53;;;5.91;66.10
62333;BME280;48624;49.812;8.562;2023-03-04T13:50:20;101204.72;;;5.64;66.56
62333;BME280;48624;49.812;8.562;2023-03-04T13:52:47;101210.06;;;5.86;66.41
62333;BME280;48624;49.812;8.562;2023-03-04T13:55:37;101209.81;;;5.68;66.50
62333;BME280;48624;49.812;8.562;2023-03-04T13:58:32;101204.72;;;5.89;67.35
62333;BME280;48624;49.812;8.562;2023-03-04T14:00:57;101187.34;;;5.60;67.21
62333;BME280;48624;49.812;8.562;2023-03-04T14:03:28;101190.41;;;5.96;66.40
62333;BME280;48624;49.812;8.562;2023-03-04T14:06:21;101189.59;;;5.71;66.35
62333;BME280;48624;49.812;8.562;2023-03-04T14:08:48;101181.66;;;6.21;66.02
62333;BME280;48624;49.812;8.562;2023-03-04T14:11:16;101184.63;;;6.12;65.30
62333;BME280;48624;49.812;8.562;2023-03-04T14:13:47;101183.72;;;6.13;65.47
62333;BME280;48624;49.812;8.562;2023-03-04T14:16:18;101187.44;;;6.07;65.26
62333;BME280;48624;49.812;8.562;2023-03-04T14:18:44;101179.00;;;5.97;65.84
62333;BME280;48624;49.812;8.562;2023-03-04T14:21:13;101172.78;;;6.24;65.22
62333;BME280;48624;49.812;8.562;2023-03-04T14:23:38;101180.81;;;6.43;64.93
62333;BME280;48624;49.812;8.562;2023-03-04T14:26:14;101180.91;;;6.42;64.42
62333;BME280;48624;49.812;8.562;2023-03-04T14:28:47;101167.09;;;6.35;64.41
62333;BME280;48624;49.812;8.562;2023-03-04T14:31:18;101162.56;;;6.38;64.56
62333;BME280;48624;49.812;8.562;2023-03-04T14:33:47;101156.91;;;6.49;64.26
62333;BME280;48624;49.812;8.562;2023-03-04T14:36:19;101156.81;;;6.73;63.78
62333;BME280;48624;49.812;8.562;2023-03-04T14:38:54;101157.88;;;6.47;63.60
62333;BME280;48624;49.812;8.562;2023-03-04T14:41:33;101153.72;;;6.41;63.76